createdAt,value
2018-09-25T00:00:51.118Z,8.60
2018-09-25T00:01:51.135Z,8.66
2018-09-25T00:02:51.151Z,8.61
2018-09-25T00:03:51.170Z,8.61
2018-09-25T00:04:51.188Z,8.69
2018-09-25T00:05:51.204Z,8.67
2018-09-25T00:06:51.221Z,8.58
2018-09-25T00:07:51.237Z,8.55
2018-09-25T00:08:51.253Z,8.52
2018-09-25T00:09:51.272Z,8.64
2018-09-25T00:10:51.288Z,8.64
2018-09-25T00:11:51.306Z,8.61
2018-09-25T00:12:51.321Z,8.60
2018-09-25T00:13:51.339Z,8.67
2018-09-25T00:14:51.357Z,8.66
2018-09-25T00:15:51.374Z,8.64
2018-09-25T00:16:51.389Z,8.71
2018-09-25T00:17:51.405Z,8.70
2018-09-25T00:18:51.424Z,8.66
2018-09-25T00:19:51.441Z,8.58
2018-09-25T00:20:51.460Z,8.48
2018-09-25T00:21:51.505Z,8.56
2018-09-25T00:22:51.490Z,8.52
2018-09-25T00:23:51.509Z,8.55
2018-09-25T00:24:51.530Z,8.64
2018-09-25T00:25:51.541Z,8.58
2018-09-25T00:26:51.559Z,8.64
2018-09-25T00:27:51.577Z,8.61
2018-09-25T00:28:51.594Z,8.67
2018-09-25T00:29:51.612Z,8.58
2018-09-25T00:30:51.624Z,8.58
2018-09-25T00:31:51.642Z,8.56
2018-09-25T00:32:51.660Z,8.66
2018-09-25T00:33:51.675Z,8.67
2018-09-25T00:34:51.693Z,8.60
2018-09-25T00:35:51.710Z,8.66
2018-09-25T00:36:51.726Z,8.58
2018-09-25T00:37:51.744Z,8.66
2018-09-25T00:38:51.761Z,8.69
2018-09-25T00:39:51.776Z,8.64
2018-09-25T00:40:51.793Z,8.58
2018-09-25T00:41:51.812Z,8.69
2018-09-25T00:42:51.829Z,8.66
2018-09-25T00:43:51.847Z,8.61
2018-09-25T00:44:51.861Z,8.61
2018-09-25T00:45:51.878Z,8.52
2018-09-25T00:46:51.963Z,8.53
2018-09-25T00:47:51.913Z,8.56
2018-09-25T00:48:51.927Z,8.55
2018-09-25T00:49:51.945Z,8.53
2018-09-25T00:50:52.012Z,8.48
2018-09-25T00:51:51.977Z,8.45
2018-09-25T00:52:51.999Z,8.45
2018-09-25T00:53:52.013Z,8.38
2018-09-25T00:54:52.031Z,8.38
2018-09-25T00:55:52.045Z,8.37
2018-09-25T00:56:52.063Z,8.37
2018-09-25T00:57:52.080Z,8.36
2018-09-25T00:58:52.095Z,8.41
2018-09-25T00:59:52.114Z,8.31
2018-09-25T01:00:52.131Z,8.38
2018-09-25T01:01:52.148Z,8.34
2018-09-25T01:02:52.164Z,8.33
2018-09-25T01:03:52.179Z,8.36
2018-09-25T01:04:52.198Z,8.38
2018-09-25T01:05:52.215Z,8.38
2018-09-25T01:06:52.231Z,8.33
2018-09-25T01:07:52.246Z,8.33
2018-09-25T01:08:52.266Z,8.38
2018-09-25T01:09:52.280Z,8.30
2018-09-25T01:10:52.296Z,8.30
2018-09-25T01:11:52.315Z,8.33
2018-09-25T01:12:52.331Z,8.30
2018-09-25T01:13:52.346Z,8.36
2018-09-25T01:14:52.363Z,8.31
2018-09-25T01:15:52.382Z,8.36
2018-09-25T01:16:52.434Z,8.34
2018-09-25T01:17:52.413Z,8.41
2018-09-25T01:18:52.432Z,8.42
2018-09-25T01:19:52.449Z,8.34
2018-09-25T01:20:52.465Z,8.36
2018-09-25T01:21:52.482Z,8.42
2018-09-25T01:22:52.499Z,8.36
2018-09-25T01:23:52.514Z,8.41
2018-09-25T01:24:52.532Z,8.36
2018-09-25T01:25:52.549Z,8.38
2018-09-25T01:26:52.567Z,8.34
2018-09-25T01:27:52.582Z,8.31
2018-09-25T01:28:52.601Z,8.26
2018-09-25T01:29:52.617Z,8.20
2018-09-25T01:30:52.633Z,8.23
2018-09-25T01:31:52.650Z,8.20
2018-09-25T01:32:52.667Z,8.28
2018-09-25T01:33:52.683Z,8.30
2018-09-25T01:34:52.705Z,8.28
2018-09-25T01:35:52.715Z,8.34
2018-09-25T01:36:52.734Z,8.36
2018-09-25T01:37:52.748Z,8.37
2018-09-25T01:38:52.767Z,8.44
2018-09-25T01:39:52.784Z,8.38
2018-09-25T01:40:52.802Z,8.45
2018-09-25T01:41:52.820Z,8.48
2018-09-25T01:42:52.835Z,8.37
2018-09-25T01:43:52.851Z,8.41
2018-09-25T01:44:52.866Z,8.48
2018-09-25T01:45:52.882Z,8.45
2018-09-25T01:46:52.901Z,8.48
2018-09-25T01:47:52.919Z,8.49
2018-09-25T01:48:52.935Z,8.34
2018-09-25T01:49:52.948Z,8.37
2018-09-25T01:50:52.968Z,8.37
2018-09-25T01:51:52.987Z,8.37
2018-09-25T01:52:53.000Z,8.36
2018-09-25T01:53:53.018Z,8.34
2018-09-25T01:54:53.035Z,8.30
2018-09-25T01:55:53.052Z,8.33
2018-09-25T01:56:53.067Z,8.36
2018-09-25T01:57:53.085Z,8.20
2018-09-25T01:58:53.100Z,8.19
2018-09-25T01:59:53.118Z,8.30
2018-09-25T02:00:53.134Z,8.15
2018-09-25T02:01:53.153Z,8.28
2018-09-25T02:02:53.169Z,8.23
2018-09-25T02:03:53.186Z,8.23
2018-09-25T02:04:53.201Z,8.24
2018-09-25T02:05:53.285Z,8.19
2018-09-25T02:06:53.236Z,8.26
2018-09-25T02:07:53.253Z,8.26
2018-09-25T02:08:53.268Z,8.27
2018-09-25T02:09:53.285Z,8.31
2018-09-25T02:10:53.303Z,8.31
2018-09-25T02:11:53.318Z,8.34
2018-09-25T02:12:53.337Z,8.26
2018-09-25T02:13:53.351Z,8.23
2018-09-25T02:14:53.370Z,8.27
2018-09-25T02:15:53.388Z,8.31
2018-09-25T02:16:53.430Z,8.18
2018-09-25T02:17:53.418Z,8.24
2018-09-25T02:18:53.437Z,8.24
2018-09-25T02:19:53.456Z,8.20
2018-09-25T02:20:53.472Z,8.19
2018-09-25T02:21:53.488Z,8.23
2018-09-25T02:22:53.503Z,8.20
2018-09-25T02:23:53.521Z,8.13
2018-09-25T02:24:53.566Z,8.23
2018-09-25T02:25:53.555Z,8.20
2018-09-25T02:26:53.571Z,8.15
2018-09-25T02:27:53.589Z,8.18
2018-09-25T02:28:53.605Z,8.23
2018-09-25T02:29:53.663Z,8.16
2018-09-25T02:30:53.638Z,8.08
2018-09-25T02:31:53.653Z,8.13
2018-09-25T02:32:53.670Z,8.00
2018-09-25T02:33:53.686Z,7.97
2018-09-25T02:34:53.703Z,7.98
2018-09-25T02:35:53.728Z,7.98
2018-09-25T02:36:53.737Z,8.01
2018-09-25T02:37:53.753Z,7.95
2018-09-25T02:38:53.771Z,7.95
2018-09-25T02:39:53.788Z,7.97
2018-09-25T02:40:53.807Z,7.95
2018-09-25T02:41:53.822Z,7.94
2018-09-25T02:42:53.843Z,7.95
2018-09-25T02:43:53.885Z,7.88
2018-09-25T02:44:53.874Z,7.91
2018-09-25T02:45:53.923Z,7.82
2018-09-25T02:46:53.910Z,7.72
2018-09-25T02:47:53.926Z,7.63
2018-09-25T02:48:53.940Z,7.72
2018-09-25T02:49:53.954Z,7.57
2018-09-25T02:50:53.971Z,7.50
2018-09-25T02:51:53.988Z,7.53
2018-09-25T02:52:54.007Z,7.56
2018-09-25T02:53:54.021Z,7.56
2018-09-25T02:54:54.042Z,7.56
2018-09-25T02:55:54.057Z,7.57
2018-09-25T02:56:54.074Z,7.51
2018-09-25T02:57:54.091Z,7.54
2018-09-25T02:58:54.106Z,7.54
2018-09-25T02:59:54.123Z,7.48
2018-09-25T03:00:54.140Z,7.50
2018-09-25T03:01:54.158Z,7.48
2018-09-25T03:02:54.173Z,7.51
2018-09-25T03:03:54.190Z,7.40
2018-09-25T03:04:54.207Z,7.40
2018-09-25T03:05:54.257Z,7.38
2018-09-25T03:06:54.242Z,7.40
2018-09-25T03:07:54.256Z,7.45
2018-09-25T03:08:54.272Z,7.43
2018-09-25T03:09:54.287Z,7.38
2018-09-25T03:10:54.306Z,7.35
2018-09-25T03:11:54.325Z,7.42
2018-09-25T03:12:54.340Z,7.32
2018-09-25T03:13:54.352Z,7.36
2018-09-25T03:14:54.372Z,7.40
2018-09-25T03:15:54.387Z,7.38
2018-09-25T03:16:54.406Z,7.32
2018-09-25T03:17:54.422Z,7.43
2018-09-25T03:18:54.436Z,7.31
2018-09-25T03:19:54.453Z,7.35
2018-09-25T03:20:54.471Z,7.32
2018-09-25T03:21:54.518Z,7.21
2018-09-25T03:22:54.502Z,7.21
2018-09-25T03:23:54.524Z,7.21
2018-09-25T03:24:54.537Z,7.32
2018-09-25T03:25:54.551Z,7.29
2018-09-25T03:26:54.567Z,7.31
2018-09-25T03:27:54.583Z,7.33
2018-09-25T03:28:54.601Z,7.42
2018-09-25T03:29:54.620Z,7.43
2018-09-25T03:30:54.637Z,7.43
2018-09-25T03:31:54.650Z,7.36
2018-09-25T03:32:54.678Z,7.40
2018-09-25T03:33:54.686Z,7.39
2018-09-25T03:34:54.702Z,7.43
2018-09-25T03:35:54.722Z,7.47
2018-09-25T03:36:54.733Z,7.47
2018-09-25T03:37:54.749Z,7.39
2018-09-25T03:38:54.769Z,7.42
2018-09-25T03:39:54.811Z,7.35
2018-09-25T03:40:54.798Z,7.39
2018-09-25T03:41:54.817Z,7.48
2018-09-25T03:42:54.836Z,7.45
2018-09-25T03:43:54.847Z,7.36
2018-09-25T03:44:54.867Z,7.38
2018-09-25T03:45:54.880Z,7.35
2018-09-25T03:46:54.899Z,7.35
2018-09-25T03:47:54.947Z,7.45
2018-09-25T03:48:54.930Z,7.39
2018-09-25T03:49:54.948Z,7.45
2018-09-25T03:50:54.962Z,7.36
2018-09-25T03:51:54.980Z,7.35
2018-09-25T03:52:54.997Z,7.31
2018-09-25T03:53:55.017Z,7.31
2018-09-25T03:54:55.030Z,7.32
2018-09-25T03:55:55.044Z,7.25
2018-09-25T03:56:55.062Z,7.21
2018-09-25T03:57:55.079Z,7.32
2018-09-25T03:58:55.101Z,7.21
2018-09-25T03:59:55.112Z,7.20
2018-09-25T04:00:55.130Z,7.18
2018-09-25T04:01:55.142Z,7.35
2018-09-25T04:02:55.163Z,7.33
2018-09-25T04:03:55.177Z,7.31
2018-09-25T04:04:55.196Z,7.31
2018-09-25T04:05:55.209Z,7.33
2018-09-25T04:06:55.225Z,7.29
2018-09-25T04:07:55.243Z,7.18
2018-09-25T04:08:55.258Z,7.35
2018-09-25T04:09:55.273Z,7.17
2018-09-25T04:10:55.290Z,7.06
2018-09-25T04:11:55.307Z,7.02
2018-09-25T04:12:55.356Z,7.10
2018-09-25T04:13:55.339Z,7.11
2018-09-25T04:14:55.355Z,7.10
2018-09-25T04:15:55.374Z,7.07
2018-09-25T04:16:55.391Z,7.21
2018-09-25T04:17:55.404Z,7.21
2018-09-25T04:18:55.421Z,7.18
2018-09-25T04:19:55.438Z,7.17
2018-09-25T04:20:55.456Z,7.18
2018-09-25T04:21:55.472Z,7.28
2018-09-25T04:22:55.487Z,7.23
2018-09-25T04:23:55.506Z,7.21
2018-09-25T04:24:55.524Z,7.21
2018-09-25T04:25:55.535Z,7.20
2018-09-25T04:26:55.551Z,7.23
2018-09-25T04:27:55.571Z,7.31
2018-09-25T04:28:55.587Z,7.28
2018-09-25T04:29:55.602Z,7.21
2018-09-25T04:30:55.617Z,7.31
2018-09-25T04:31:55.634Z,7.20
2018-09-25T04:32:55.654Z,7.23
2018-09-25T04:33:55.671Z,7.20
2018-09-25T04:34:55.683Z,7.15
2018-09-25T04:35:55.700Z,7.17
2018-09-25T04:36:55.719Z,7.24
2018-09-25T04:37:55.734Z,7.24
2018-09-25T04:38:55.748Z,7.21
2018-09-25T04:39:55.765Z,7.18
2018-09-25T04:40:55.780Z,7.29
2018-09-25T04:41:55.798Z,7.25
2018-09-25T04:42:55.814Z,7.21
2018-09-25T04:43:55.832Z,7.28
2018-09-25T04:44:55.852Z,7.25
2018-09-25T04:45:55.865Z,7.21
2018-09-25T04:46:55.879Z,7.21
2018-09-25T04:47:55.915Z,7.28
2018-09-25T04:48:55.914Z,7.33
2018-09-25T04:49:55.927Z,7.38
2018-09-25T04:50:55.948Z,7.33
2018-09-25T04:51:55.961Z,7.31
2018-09-25T04:52:55.977Z,7.40
2018-09-25T04:53:55.994Z,7.36
2018-09-25T04:54:56.010Z,7.29
2018-09-25T04:55:56.063Z,7.36
2018-09-25T04:56:56.047Z,7.35
2018-09-25T04:57:56.063Z,7.39
2018-09-25T04:58:56.076Z,7.39
2018-09-25T04:59:56.094Z,7.39
2018-09-25T05:00:56.111Z,7.39
2018-09-25T05:01:56.127Z,7.29
2018-09-25T05:02:56.145Z,7.25
2018-09-25T05:03:56.173Z,7.28
2018-09-25T05:04:56.176Z,7.20
2018-09-25T05:05:56.218Z,7.24
2018-09-25T05:06:56.213Z,7.18
2018-09-25T05:07:56.223Z,7.18
2018-09-25T05:08:56.246Z,7.15
2018-09-25T05:09:56.260Z,7.06
2018-09-25T05:10:56.272Z,7.11
2018-09-25T05:11:56.349Z,7.06
2018-09-25T05:12:56.306Z,7.07
2018-09-25T05:13:56.350Z,7.06
2018-09-25T05:14:56.339Z,7.13
2018-09-25T05:15:56.358Z,7.13
2018-09-25T05:16:56.375Z,7.13
2018-09-25T05:17:56.390Z,7.17
2018-09-25T05:18:56.425Z,7.06
2018-09-25T05:19:56.421Z,7.06
2018-09-25T05:20:56.438Z,7.10
2018-09-25T05:21:56.488Z,7.03
2018-09-25T05:22:56.470Z,7.05
2018-09-25T05:23:56.490Z,7.14
2018-09-25T05:24:56.536Z,7.15
2018-09-25T05:25:56.519Z,7.02
2018-09-25T05:26:56.533Z,7.21
2018-09-25T05:27:56.556Z,7.21
2018-09-25T05:28:56.568Z,7.10
2018-09-25T05:29:56.588Z,7.25
2018-09-25T05:30:56.599Z,7.17
2018-09-25T05:31:56.615Z,7.24
2018-09-25T05:32:56.632Z,7.29
2018-09-25T05:33:56.653Z,7.33
2018-09-25T05:34:56.666Z,7.31
2018-09-25T05:35:56.680Z,7.18
2018-09-25T05:36:56.696Z,7.20
2018-09-25T05:37:56.714Z,7.21
2018-09-25T05:38:56.732Z,7.20
2018-09-25T05:39:56.750Z,7.17
2018-09-25T05:40:56.780Z,7.18
2018-09-25T05:41:56.780Z,7.18
2018-09-25T05:42:56.794Z,7.21
2018-09-25T05:43:56.813Z,7.17
2018-09-25T05:44:56.831Z,7.17
2018-09-25T05:45:56.845Z,7.20
2018-09-25T05:46:56.862Z,7.28
2018-09-25T05:47:56.894Z,7.31
2018-09-25T05:48:57.131Z,7.29
2018-09-25T05:49:56.911Z,7.40
2018-09-25T05:50:56.925Z,7.32
2018-09-25T05:51:56.942Z,7.39
2018-09-25T05:52:56.960Z,7.28
2018-09-25T05:53:56.978Z,7.35
2018-09-25T05:54:56.993Z,7.29
2018-09-25T05:55:57.010Z,7.24
2018-09-25T05:56:57.027Z,7.31
2018-09-25T05:57:57.042Z,7.29
2018-09-25T05:58:57.058Z,7.21
2018-09-25T05:59:57.076Z,7.31
2018-09-25T06:00:57.116Z,7.38
2018-09-25T06:01:57.132Z,7.32
2018-09-25T06:02:57.155Z,7.51
2018-09-25T06:03:57.177Z,7.43
2018-09-25T06:04:57.158Z,7.38
2018-09-25T06:05:57.174Z,7.40
2018-09-25T06:06:57.190Z,7.43
2018-09-25T06:07:57.254Z,7.42
2018-09-25T06:08:57.221Z,7.36
2018-09-25T06:09:57.238Z,7.40
2018-09-25T06:10:57.256Z,7.40
2018-09-25T06:11:57.272Z,7.35
2018-09-25T06:12:57.287Z,7.33
2018-09-25T06:13:57.305Z,7.32
2018-09-25T06:14:57.325Z,7.40
2018-09-25T06:15:57.338Z,7.43
2018-09-25T06:16:57.354Z,7.50
2018-09-25T06:17:57.377Z,7.43
2018-09-25T06:18:57.385Z,7.47
2018-09-25T06:19:57.404Z,7.39
2018-09-25T06:20:57.419Z,7.47
2018-09-25T06:21:57.434Z,7.47
2018-09-25T06:22:57.486Z,7.48
2018-09-25T06:23:57.470Z,7.45
2018-09-25T06:24:57.487Z,7.58
2018-09-25T06:25:57.502Z,7.53
2018-09-25T06:26:57.516Z,7.51
2018-09-25T06:27:57.585Z,7.56
2018-09-25T06:28:57.554Z,7.66
2018-09-25T06:29:57.568Z,7.67
2018-09-25T06:30:57.615Z,7.75
2018-09-25T06:31:57.602Z,7.88
2018-09-25T06:32:57.617Z,7.82
2018-09-25T06:33:57.632Z,7.79
2018-09-25T06:34:57.706Z,7.77
2018-09-25T06:35:57.668Z,7.85
2018-09-25T06:36:57.683Z,7.85
2018-09-25T06:37:57.700Z,7.85
2018-09-25T06:38:57.715Z,7.82
2018-09-25T06:39:57.733Z,7.82
2018-09-25T06:40:57.901Z,7.94
2018-09-25T06:41:57.767Z,7.93
2018-09-25T06:42:57.788Z,7.94
2018-09-25T06:43:57.800Z,7.93
2018-09-25T06:44:57.817Z,7.95
2018-09-25T06:45:57.833Z,8.05
2018-09-25T06:46:57.850Z,8.01
2018-09-25T06:47:57.873Z,8.01
2018-09-25T06:48:57.884Z,7.98
2018-09-25T06:49:57.900Z,8.00
2018-09-25T06:50:57.915Z,8.00
2018-09-25T06:51:57.933Z,8.01
2018-09-25T06:52:57.950Z,8.10
2018-09-25T06:53:57.965Z,8.15
2018-09-25T06:54:58.082Z,8.23
2018-09-25T06:55:58.000Z,8.23
2018-09-25T06:56:58.017Z,8.24
2018-09-25T06:57:58.034Z,8.36
2018-09-25T06:58:58.051Z,8.33
2018-09-25T06:59:58.067Z,8.34
2018-09-25T07:00:58.109Z,8.34
2018-09-25T07:01:58.132Z,8.48
2018-09-25T07:02:58.121Z,8.45
2018-09-25T07:03:58.138Z,8.44
2018-09-25T07:04:58.150Z,8.48
2018-09-25T07:05:58.169Z,8.48
2018-09-25T07:06:58.189Z,8.46
2018-09-25T07:07:58.201Z,8.55
2018-09-25T07:08:58.253Z,8.55
2018-09-25T07:09:58.297Z,8.66
2018-09-25T07:10:58.251Z,8.67
2018-09-25T07:11:58.269Z,8.55
2018-09-25T07:12:58.287Z,8.70
2018-09-25T07:13:58.303Z,8.71
2018-09-25T07:14:58.323Z,8.70
2018-09-25T07:15:58.338Z,8.78
2018-09-25T07:16:58.353Z,8.73
2018-09-25T07:17:58.513Z,8.64
2018-09-25T07:18:58.388Z,8.73
2018-09-25T07:19:58.403Z,8.88
2018-09-25T07:20:58.426Z,8.76
2018-09-25T07:21:58.438Z,8.91
2018-09-25T07:22:58.455Z,8.94
2018-09-25T07:23:58.474Z,8.94
2018-09-25T07:24:58.500Z,9.04
2018-09-25T07:25:58.508Z,8.95
2018-09-25T07:26:58.529Z,9.13
2018-09-25T07:27:58.543Z,9.08
2018-09-25T07:28:58.560Z,9.13
2018-09-25T07:29:58.577Z,9.10
2018-09-25T07:30:58.622Z,9.18
2018-09-25T07:31:58.618Z,9.22
2018-09-25T07:32:58.630Z,9.22
2018-09-25T07:33:58.646Z,9.36
2018-09-25T07:34:58.699Z,9.37
2018-09-25T07:35:58.679Z,9.32
2018-09-25T07:36:58.699Z,9.31
2018-09-25T07:37:58.713Z,9.41
2018-09-25T07:38:58.734Z,9.36
2018-09-25T07:39:58.751Z,9.41
2018-09-25T07:40:58.767Z,9.51
2018-09-25T07:41:58.782Z,9.46
2018-09-25T07:42:58.804Z,9.43
2018-09-25T07:43:58.818Z,9.46
2018-09-25T07:44:58.874Z,9.47
2018-09-25T07:45:58.856Z,9.44
2018-09-25T07:46:58.874Z,9.54
2018-09-25T07:47:58.895Z,9.55
2018-09-25T07:48:59.008Z,9.61
2018-09-25T07:49:58.925Z,9.54
2018-09-25T07:50:58.942Z,9.62
2018-09-25T07:51:58.957Z,9.58
2018-09-25T07:52:58.976Z,9.69
2018-09-25T07:53:59.000Z,9.73
2018-09-25T07:54:59.014Z,9.66
2018-09-25T07:55:59.028Z,9.76
2018-09-25T07:56:59.047Z,9.92
2018-09-25T07:57:59.063Z,9.95
2018-09-25T07:58:59.080Z,9.95
2018-09-25T07:59:59.097Z,10.10
2018-09-25T08:00:59.196Z,10.09
2018-09-25T08:01:59.133Z,10.07
2018-09-25T08:02:59.180Z,10.13
2018-09-25T08:03:59.169Z,10.16
2018-09-25T08:04:59.186Z,10.19
2018-09-25T08:05:59.206Z,10.30
2018-09-25T08:06:59.221Z,10.30
2018-09-25T08:07:59.242Z,10.37
2018-09-25T08:08:59.294Z,10.37
2018-09-25T08:09:59.279Z,10.35
2018-09-25T08:10:59.296Z,10.49
2018-09-25T08:11:59.311Z,10.54
2018-09-25T08:12:59.332Z,10.63
2018-09-25T08:13:59.349Z,10.63
2018-09-25T08:14:59.366Z,10.74
2018-09-25T08:15:59.387Z,10.75
2018-09-25T08:16:59.403Z,10.89
2018-09-25T08:17:59.418Z,10.87
2018-09-25T08:18:59.438Z,10.93
2018-09-25T08:19:59.457Z,10.93
2018-09-25T08:20:59.476Z,10.94
2018-09-25T08:21:59.494Z,10.94
2018-09-25T08:22:59.512Z,10.94
2018-09-25T08:23:59.530Z,10.93
2018-09-25T08:24:59.547Z,11.02
2018-09-25T08:25:59.566Z,11.05
2018-09-25T08:26:59.582Z,11.05
2018-09-25T08:27:59.601Z,11.26
2018-09-25T08:28:59.620Z,11.26
2018-09-25T08:29:59.639Z,11.30
2018-09-25T08:30:59.657Z,11.27
2018-09-25T08:31:59.676Z,11.33
2018-09-25T08:32:59.693Z,11.37
2018-09-25T08:33:59.719Z,11.41
2018-09-25T08:34:59.752Z,11.45
2018-09-25T08:36:00.090Z,11.48
2018-09-25T08:36:59.770Z,11.50
2018-09-25T08:37:59.785Z,11.47
2018-09-25T08:38:59.869Z,11.47
2018-09-25T08:39:59.820Z,11.48
2018-09-25T08:40:59.841Z,11.52
2018-09-25T08:41:59.858Z,11.57
2018-09-25T08:42:59.877Z,11.59
2018-09-25T08:43:59.898Z,11.68
2018-09-25T08:44:59.913Z,11.63
2018-09-25T08:45:59.931Z,11.75
2018-09-25T08:46:59.951Z,11.83
2018-09-25T08:47:59.970Z,11.90
2018-09-25T08:48:59.989Z,11.90
2018-09-25T08:50:00.005Z,11.91
2018-09-25T08:51:00.026Z,11.99
2018-09-25T08:52:00.046Z,12.02
2018-09-25T08:53:00.064Z,12.13
2018-09-25T08:54:00.083Z,12.10
2018-09-25T08:55:00.099Z,12.18
2018-09-25T08:56:00.123Z,12.25
2018-09-25T08:57:00.140Z,12.29
2018-09-25T08:58:00.157Z,12.37
2018-09-25T08:59:00.379Z,12.40
2018-09-25T09:00:00.194Z,12.42
2018-09-25T09:01:00.224Z,12.53
2018-09-25T09:02:00.231Z,12.54
2018-09-25T09:03:00.253Z,12.54
2018-09-25T09:04:00.272Z,12.35
2018-09-25T09:05:00.294Z,12.49
2018-09-25T09:06:00.308Z,12.46
2018-09-25T09:07:00.328Z,12.55
2018-09-25T09:08:00.346Z,12.70
2018-09-25T09:09:00.367Z,12.76
2018-09-25T09:10:00.383Z,12.91
2018-09-25T09:11:00.404Z,12.90
2018-09-25T09:12:00.423Z,12.95
2018-09-25T09:13:00.441Z,12.85
2018-09-25T09:14:00.499Z,12.91
2018-09-25T09:15:00.479Z,12.85
2018-09-25T09:16:00.503Z,12.90
2018-09-25T09:17:00.519Z,12.85
2018-09-25T09:18:00.540Z,12.90
2018-09-25T09:19:00.557Z,13.04
2018-09-25T09:20:00.604Z,13.12
2018-09-25T09:21:00.599Z,13.08
2018-09-25T09:22:00.615Z,13.18
2018-09-25T09:23:00.635Z,13.23
2018-09-25T09:24:00.652Z,13.33
2018-09-25T09:25:00.700Z,13.39
2018-09-25T09:26:00.692Z,13.50
2018-09-25T09:27:00.710Z,13.44
2018-09-25T09:28:00.732Z,13.42
2018-09-25T09:29:00.750Z,13.38
2018-09-25T09:30:00.772Z,13.37
2018-09-25T09:31:00.788Z,13.46
2018-09-25T09:32:00.809Z,13.38
2018-09-25T09:33:00.828Z,13.22
2018-09-25T09:34:00.849Z,13.18
2018-09-25T09:35:00.867Z,13.15
2018-09-25T09:36:00.887Z,13.12
2018-09-25T09:37:00.914Z,13.30
2018-09-25T09:38:00.926Z,13.28
2018-09-25T09:39:00.947Z,13.27
2018-09-25T09:40:00.967Z,13.27
2018-09-25T09:41:01.011Z,13.23
2018-09-25T09:42:01.141Z,13.27
2018-09-25T09:43:01.023Z,13.31
2018-09-25T09:44:01.042Z,13.38
2018-09-25T09:45:01.069Z,13.53
2018-09-25T09:46:01.082Z,13.53
2018-09-25T09:47:01.104Z,13.59
2018-09-25T09:48:01.123Z,13.50
2018-09-25T09:49:01.143Z,13.47
2018-09-25T09:50:01.161Z,13.50
2018-09-25T09:51:01.185Z,13.63
2018-09-25T09:52:01.201Z,13.62
2018-09-25T09:53:01.220Z,13.65
2018-09-25T09:54:01.241Z,13.75
2018-09-25T09:55:01.260Z,13.87
2018-09-25T09:56:01.278Z,13.99
2018-09-25T09:57:01.298Z,14.07
2018-09-25T09:58:01.319Z,14.14
2018-09-25T09:59:01.341Z,14.07
2018-09-25T10:00:01.363Z,14.12
2018-09-25T10:01:01.380Z,14.08
2018-09-25T10:02:01.430Z,14.03
2018-09-25T10:03:01.419Z,13.99
2018-09-25T10:04:01.439Z,13.78
2018-09-25T10:05:01.460Z,13.85
2018-09-25T10:06:01.481Z,14.07
2018-09-25T10:07:01.513Z,14.17
2018-09-25T10:08:01.520Z,14.20
2018-09-25T10:09:01.542Z,14.30
2018-09-25T10:10:01.558Z,14.48
2018-09-25T10:11:01.729Z,14.43
2018-09-25T10:12:01.597Z,14.28
2018-09-25T10:13:01.620Z,14.12
2018-09-25T10:14:01.640Z,14.29
2018-09-25T10:15:01.659Z,14.36
2018-09-25T10:16:01.689Z,14.66
2018-09-25T10:17:01.700Z,14.60
2018-09-25T10:18:01.721Z,14.69
2018-09-25T10:19:01.743Z,14.77
2018-09-25T10:20:01.765Z,14.53
2018-09-25T10:21:01.781Z,14.68
2018-09-25T10:22:01.800Z,14.63
2018-09-25T10:23:01.821Z,14.66
2018-09-25T10:24:01.841Z,14.65
2018-09-25T10:25:01.863Z,14.55
2018-09-25T10:26:01.882Z,14.58
2018-09-25T10:27:01.903Z,14.68
2018-09-25T10:28:01.922Z,14.60
2018-09-25T10:29:01.944Z,14.53
2018-09-25T10:30:01.966Z,14.43
2018-09-25T10:31:01.983Z,14.47
2018-09-25T10:32:02.054Z,14.47
2018-09-25T10:33:02.026Z,14.48
2018-09-25T10:34:02.061Z,14.55
2018-09-25T10:35:02.071Z,14.63
2018-09-25T10:36:02.086Z,14.84
2018-09-25T10:37:02.111Z,14.82
2018-09-25T10:38:02.129Z,14.77
2018-09-25T10:39:02.147Z,14.96
2018-09-25T10:40:02.168Z,14.97
2018-09-25T10:41:02.224Z,15.10
2018-09-25T10:42:02.210Z,15.07
2018-09-25T10:43:02.227Z,15.17
2018-09-25T10:44:02.251Z,15.11
2018-09-25T10:45:02.274Z,15.25
2018-09-25T10:46:02.294Z,15.37
2018-09-25T10:47:02.311Z,15.44
2018-09-25T10:48:02.332Z,15.35
2018-09-25T10:49:02.353Z,15.40
2018-09-25T10:50:02.419Z,15.29
2018-09-25T10:51:02.392Z,15.10
2018-09-25T10:52:02.415Z,15.09
2018-09-25T10:53:02.434Z,15.00
2018-09-25T10:54:02.605Z,14.96
2018-09-25T10:55:02.478Z,14.94
2018-09-25T10:56:02.656Z,14.92
2018-09-25T10:57:02.874Z,15.06
2018-09-25T10:58:02.537Z,14.89
2018-09-25T10:59:02.560Z,14.97
2018-09-25T11:00:02.579Z,15.04
2018-09-25T11:01:02.602Z,15.04
2018-09-25T11:02:02.623Z,15.06
2018-09-25T11:03:02.723Z,15.04
2018-09-25T11:04:02.664Z,15.14
2018-09-25T11:05:02.685Z,15.17
2018-09-25T11:06:02.705Z,15.10
2018-09-25T11:07:02.725Z,15.11
2018-09-25T11:08:02.745Z,15.25
2018-09-25T11:09:02.767Z,15.37
2018-09-25T11:10:02.842Z,15.39
2018-09-25T11:11:02.839Z,15.44
2018-09-25T11:12:02.828Z,15.43
2018-09-25T11:13:02.857Z,15.55
2018-09-25T11:14:02.869Z,15.68
2018-09-25T11:15:02.893Z,15.76
2018-09-25T11:16:02.913Z,15.67
2018-09-25T11:17:02.936Z,15.64
2018-09-25T11:18:02.956Z,15.82
2018-09-25T11:19:02.977Z,15.94
2018-09-25T11:20:02.999Z,15.94
2018-09-25T11:21:03.017Z,15.98
2018-09-25T11:22:03.038Z,15.68
2018-09-25T11:23:03.059Z,15.70
2018-09-25T11:24:03.084Z,15.70
2018-09-25T11:25:03.106Z,15.65
2018-09-25T11:26:03.126Z,15.61
2018-09-25T11:27:03.155Z,15.57
2018-09-25T11:28:03.168Z,15.65
2018-09-25T11:29:03.192Z,15.65
2018-09-25T11:30:03.217Z,15.65
2018-09-25T11:31:03.234Z,15.68
2018-09-25T11:32:03.260Z,15.55
2018-09-25T11:33:03.275Z,15.59
2018-09-25T11:34:03.295Z,15.47
2018-09-25T11:35:03.321Z,15.44
2018-09-25T11:36:03.373Z,15.37
2018-09-25T11:37:03.372Z,15.27
2018-09-25T11:38:03.717Z,15.25
2018-09-25T11:39:03.409Z,15.15
2018-09-25T11:40:03.427Z,15.18
2018-09-25T11:41:03.535Z,15.21
2018-09-25T11:42:03.466Z,15.15
2018-09-25T11:43:03.484Z,15.14
2018-09-25T11:44:03.506Z,15.00
2018-09-25T11:45:03.555Z,15.02
2018-09-25T11:46:03.643Z,15.02
2018-09-25T11:47:03.654Z,15.07
2018-09-25T11:48:03.592Z,15.22
2018-09-25T11:49:03.612Z,15.07
2018-09-25T11:50:03.633Z,15.06
2018-09-25T11:51:03.654Z,15.00
2018-09-25T11:52:03.676Z,15.03
2018-09-25T11:53:03.708Z,15.10
2018-09-25T11:54:03.716Z,15.07
2018-09-25T11:55:04.077Z,15.09
2018-09-25T11:56:03.759Z,15.25
2018-09-25T11:57:03.778Z,15.29
2018-09-25T11:58:03.800Z,15.28
2018-09-25T11:59:03.822Z,15.44
2018-09-25T12:00:03.844Z,15.52
2018-09-25T12:01:03.864Z,15.54
2018-09-25T12:02:03.915Z,15.55
2018-09-25T12:03:03.909Z,15.61
2018-09-25T12:04:03.924Z,15.73
2018-09-25T12:05:03.945Z,15.65
2018-09-25T12:06:03.967Z,15.79
2018-09-25T12:07:03.988Z,15.67
2018-09-25T12:08:04.012Z,15.31
2018-09-25T12:09:04.031Z,15.11
2018-09-25T12:10:04.051Z,15.18
2018-09-25T12:11:04.072Z,15.07
2018-09-25T12:12:04.094Z,15.17
2018-09-25T12:13:04.116Z,15.11
2018-09-25T12:14:04.135Z,15.28
2018-09-25T12:15:04.157Z,15.31
2018-09-25T12:16:04.177Z,15.46
2018-09-25T12:17:04.197Z,15.57
2018-09-25T12:18:04.220Z,15.67
2018-09-25T12:19:04.238Z,15.70
2018-09-25T12:20:04.261Z,15.84
2018-09-25T12:21:04.285Z,15.83
2018-09-25T12:22:04.346Z,15.82
2018-09-25T12:23:04.323Z,15.83
2018-09-25T12:24:04.343Z,15.67
2018-09-25T12:25:04.365Z,15.62
2018-09-25T12:26:04.387Z,15.70
2018-09-25T12:27:04.407Z,15.86
2018-09-25T12:28:04.425Z,15.79
2018-09-25T12:29:04.450Z,15.95
2018-09-25T12:30:04.469Z,15.75
2018-09-25T12:31:04.489Z,15.61
2018-09-25T12:32:04.513Z,15.68
2018-09-25T12:33:04.596Z,15.62
2018-09-25T12:34:04.560Z,15.77
2018-09-25T12:35:04.577Z,15.83
2018-09-25T12:36:04.596Z,15.90
2018-09-25T12:37:04.645Z,15.98
2018-09-25T12:38:04.637Z,16.01
2018-09-25T12:39:04.658Z,16.23
2018-09-25T12:40:04.681Z,16.29
2018-09-25T12:41:04.768Z,16.33
2018-09-25T12:42:04.725Z,16.33
2018-09-25T12:43:04.743Z,16.43
2018-09-25T12:44:04.768Z,16.41
2018-09-25T12:45:04.788Z,16.38
2018-09-25T12:46:04.816Z,16.41
2018-09-25T12:47:04.834Z,16.51
2018-09-25T12:48:04.851Z,16.64
2018-09-25T12:49:04.873Z,16.56
2018-09-25T12:50:04.893Z,16.57
2018-09-25T12:51:04.916Z,16.58
2018-09-25T12:52:04.938Z,16.33
2018-09-25T12:53:04.962Z,16.46
2018-09-25T12:54:04.982Z,16.56
2018-09-25T12:55:05.003Z,16.47
2018-09-25T12:56:05.033Z,16.32
2018-09-25T12:57:05.106Z,16.38
2018-09-25T12:58:05.067Z,16.32
2018-09-25T12:59:05.088Z,16.38
2018-09-25T13:00:05.114Z,16.46
2018-09-25T13:01:05.132Z,16.41
2018-09-25T13:02:05.163Z,16.57
2018-09-25T13:03:05.178Z,16.54
2018-09-25T13:04:05.225Z,16.57
2018-09-25T13:05:05.223Z,16.41
2018-09-25T13:06:05.269Z,16.29
2018-09-25T13:07:05.260Z,16.13
2018-09-25T13:08:05.284Z,16.17
2018-09-25T13:09:05.305Z,16.26